Time;durP1;ratioP1;P1;durP2;ratioP2;P2;SDS_P1;SDS_P2;PMS_P1;PMS_P2;Temp;Humidity;BMP_temperature;BMP_pressure;BME280_temperature;BME280_humidity;BME280_pressure;Samples;Min_cycle;Max_cycle;Signal;HPM_P1;HPM_P2
2023/03/21 00:01:53;;;;;;;14.27;9.10;;;;;;;;;;5017305;28;20036;-80
2023/03/21 00:04:23;;;;;;;15.15;9.25;;;;;;;;;;5017541;28;20068;-79
2023/03/21 00:06:48;;;;;;;14.30;8.52;;;;;;;;;;5017101;28;20611;-80
2023/03/21 00:09:14;;;;;;;12.10;8.68;;;;;;;;;;5013754;28;20034;-80
2023/03/21 00:11:39;;;;;;;11.68;8.73;;;;;;;;;;5024788;28;20032;-79
2023/03/21 00:14:07;;;;;;;15.35;8.65;;;;;;;;;;5034871;28;20088;-80
2023/03/21 00:16:34;;;;;;;14.85;8.38;;;;;;;;;;5022657;28;20036;-80
2023/03/21 00:19:02;;;;;;;14.35;8.80;;;;;;;;;;5029951;28;20037;-80
2023/03/21 00:21:31;;;;;;;14.93;9.18;;;;;;;;;;5013645;28;20034;-80
2023/03/21 00:23:56;;;;;;;16.88;10.35;;;;;;;;;;5022301;28;20129;-80
2023/03/21 00:26:21;;;;;;;13.48;9.27;;;;;;;;;;5023804;28;20061;-80
2023/03/21 00:28:47;;;;;;;16.17;9.20;;;;;;;;;;5023840;28;20086;-80
2023/03/21 00:31:13;;;;;;;13.40;8.68;;;;;;;;;;5025631;28;20080;-80
2023/03/21 00:33:38;;;;;;;18.70;8.82;;;;;;;;;;5019560;28;20503;-80
2023/03/21 00:36:05;;;;;;;13.15;8.27;;;;;;;;;;5023299;28;20024;-79
2023/03/21 00:38:30;;;;;;;12.70;8.38;;;;;;;;;;5023822;28;20436;-80
2023/03/21 00:40:56;;;;;;;15.77;8.60;;;;;;;;;;5025466;28;20033;-81
2023/03/21 00:43:22;;;;;;;12.07;7.95;;;;;;;;;;5024806;28;20026;-80
2023/03/21 00:45:49;;;;;;;14.20;8.48;;;;;;;;;;5025361;28;20030;-79
2023/03/21 00:48:15;;;;;;;15.18;9.23;;;;;;;;;;5029871;28;20041;-80
2023/03/21 00:50:41;;;;;;;14.77;8.60;;;;;;;;;;5024782;28;20392;-80
2023/03/21 00:53:06;;;;;;;13.05;8.20;;;;;;;;;;5017774;28;20389;-80
2023/03/21 00:55:32;;;;;;;14.38;7.88;;;;;;;;;;5023929;28;20089;-80
2023/03/21 00:57:57;;;;;;;13.50;8.20;;;;;;;;;;5018329;28;20681;-80
2023/03/21 01:00:23;;;;;;;13.13;8.80;;;;;;;;;;5021818;28;20116;-80
2023/03/21 01:02:57;;;;;;;13.65;8.32;;;;;;;;;;5020697;28;20745;-79
2023/03/21 01:08:14;;;;;;;14.73;8.00;;;;;;;;;;5025832;28;20065;-80
2023/03/21 01:10:45;;;;;;;12.30;8.10;;;;;;;;;;5014062;28;20105;-80
2023/03/21 01:13:12;;;;;;;15.90;8.75;;;;;;;;;;5020673;28;20038;-80
2023/03/21 01:15:51;;;;;;;12.98;7.53;;;;;;;;;;5023602;28;20076;-79
2023/03/21 01:18:18;;;;;;;12.63;7.90;;;;;;;;;;5021232;28;20025;-79
2023/03/21 01:20:44;;;;;;;14.38;8.52;;;;;;;;;;5020094;28;20090;-80
2023/03/21 01:23:11;;;;;;;14.68;7.82;;;;;;;;;;5019741;28;20084;-79
2023/03/21 01:25:37;;;;;;;12.30;7.93;;;;;;;;;;5025614;28;20436;-80
2023/03/21 01:28:03;;;;;;;12.32;7.82;;;;;;;;;;5020018;28;20030;-80
2023/03/21 01:30:29;;;;;;;11.10;7.10;;;;;;;;;;5026434;28;20136;-80
2023/03/21 01:32:54;;;;;;;14.60;7.95;;;;;;;;;;5014008;28;20034;-80
2023/03/21 01:35:19;;;;;;;12.75;7.20;;;;;;;;;;5020885;28;20052;-80
2023/03/21 01:37:45;;;;;;;15.93;8.05;;;;;;;;;;5018594;28;20030;-80
2023/03/21 01:40:18;;;;;;;14.07;7.97;;;;;;;;;;5015853;28;20086;-80
2023/03/21 01:42:44;;;;;;;12.85;7.88;;;;;;;;;;5029402;28;20021;-80
2023/03/21 01:45:47;;;;;;;12.80;8.50;;;;;;;;;;5021734;28;20026;-80
2023/03/21 01:48:13;;;;;;;12.13;8.10;;;;;;;;;;5026982;28;20117;-80
2023/03/21 01:50:40;;;;;;;11.50;8.20;;;;;;;;;;5037017;28;20061;-80
2023/03/21 01:53:06;;;;;;;13.90;8.07;;;;;;;;;;5021991;28;20053;-80
2023/03/21 01:55:32;;;;;;;13.57;7.90;;;;;;;;;;5018611;28;20112;-80
2023/03/21 01:58:00;;;;;;;12.57;8.13;;;;;;;;;;5023425;28;20063;-79
2023/03/21 02:00:28;;;;;;;12.40;8.10;;;;;;;;;;5021548;28;20035;-80
2023/03/21 02:02:56;;;;;;;13.40;8.85;;;;;;;;;;5018085;28;20026;-80
2023/03/21 02:05:32;;;;;;;11.98;8.52;;;;;;;;;;5020057;28;20040;-80
2023/03/21 02:07:59;;;;;;;16.10;9.05;;;;;;;;;;5024808;28;20509;-79
2023/03/21 02:10:26;;;;;;;13.55;8.25;;;;;;;;;;5014647;28;20042;-80
2023/03/21 02:12:54;;;;;;;14.32;9.23;;;;;;;;;;5031778;28;20030;-80
2023/03/21 02:15:22;;;;;;;14.85;9.10;;;;;;;;;;5015462;28;20096;-80
2023/03/21 02:17:55;;;;;;;15.07;8.45;;;;;;;;;;5015727;28;20117;-80
2023/03/21 02:20:44;;;;;;;;;;;;;;;;;;5011692;28;20112;-80
2023/03/21 02:23:31;;;;;;;11.98;7.60;;;;;;;;;;4978805;28;19913;-79
2023/03/21 02:26:19;;;;;;;16.50;8.68;;;;;;;;;;5017964;28;20049;-80
2023/03/21 02:28:50;;;;;;;12.93;7.60;;;;;;;;;;5027346;28;20026;-80
2023/03/21 02:31:27;;;;;;;14.80;8.63;;;;;;;;;;5008970;28;20386;-80
2023/03/21 02:34:24;;;;;;;14.32;7.68;;;;;;;;;;5011035;28;20049;-80
2023/03/21 02:36:56;;;;;;;14.13;7.65;;;;;;;;;;5010055;28;20089;-79
2023/03/21 02:39:33;;;;;;;11.95;7.72;;;;;;;;;;5024080;28;20026;-80
2023/03/21 02:42:21;;;;;;;12.68;8.07;;;;;;;;;;5019917;28;20049;-80
2023/03/21 02:45:04;;;;;;;14.73;7.88;;;;;;;;;;5012383;28;20030;-79
2023/03/21 02:47:36;;;;;;;13.73;8.18;;;;;;;;;;5017540;28;20034;-80
2023/03/21 02:50:16;;;;;;;16.25;7.57;;;;;;;;;;5015140;28;20026;-80
2023/03/21 02:52:45;;;;;;;12.68;7.32;;;;;;;;;;5015677;28;20385;-80
2023/03/21 02:55:25;;;;;;;14.25;7.03;;;;;;;;;;5026038;28;20061;-80
2023/03/21 02:57:55;;;;;;;14.48;7.47;;;;;;;;;;5009658;28;20060;-80
2023/03/21 03:00:25;;;;;;;14.23;7.60;;;;;;;;;;5007464;28;20129;-80
2023/03/21 03:02:51;;;;;;;14.95;7.88;;;;;;;;;;5013907;28;20033;-80
2023/03/21 03:05:20;;;;;;;13.52;7.47;;;;;;;;;;5013645;28;20030;-79
2023/03/21 03:07:52;;;;;;;16.45;7.63;;;;;;;;;;5014152;28;20476;-80
2023/03/21 03:10:45;;;;;;;12.40;6.80;;;;;;;;;;5025412;28;20033;-80
2023/03/21 03:13:26;;;;;;;15.93;6.33;;;;;;;;;;5028033;28;20128;-80
2023/03/21 03:16:06;;;;;;;14.65;7.03;;;;;;;;;;5014148;28;20271;-80
2023/03/21 03:18:54;;;;;;;8.68;5.82;;;;;;;;;;5011835;28;20516;-79
2023/03/21 03:21:29;;;;;;;10.88;6.25;;;;;;;;;;5011056;28;20022;-80
2023/03/21 03:24:09;;;;;;;10.07;5.88;;;;;;;;;;5007958;28;20497;-80
2023/03/21 03:26:39;;;;;;;8.82;5.45;;;;;;;;;;5012483;28;20034;-79
2023/03/21 03:29:10;;;;;;;10.85;5.50;;;;;;;;;;5010665;28;20026;-80
2023/03/21 03:31:40;;;;;;;11.13;5.88;;;;;;;;;;5011239;28;20033;-79
2023/03/21 03:34:11;;;;;;;10.02;5.43;;;;;;;;;;5010374;28;20481;-79
2023/03/21 03:36:46;;;;;;;12.20;5.40;;;;;;;;;;5010722;28;20374;-79
2023/03/21 03:39:13;;;;;;;12.52;5.28;;;;;;;;;;5010015;28;20109;-79
2023/03/21 03:41:50;;;;;;;10.85;4.72;;;;;;;;;;5011430;28;20028;-80
2023/03/21 03:44:15;;;;;;;10.57;5.40;;;;;;;;;;5012885;28;20461;-79
2023/03/21 03:46:54;;;;;;;9.65;4.82;;;;;;;;;;5015487;28;20076;-79
2023/03/21 03:49:23;;;;;;;11.07;5.35;;;;;;;;;;5021903;28;21962;-79
2023/03/21 03:52:00;;;;;;;12.65;4.97;;;;;;;;;;5008688;28;20528;-79
2023/03/21 03:54:37;;;;;;;10.82;5.15;;;;;;;;;;5016878;28;20044;-80
2023/03/21 03:57:04;;;;;;;7.75;4.25;;;;;;;;;;5009536;28;20037;-79
2023/03/21 03:59:33;;;;;;;12.73;5.05;;;;;;;;;;5012496;28;20406;-79
2023/03/21 04:01:58;;;;;;;8.57;4.88;;;;;;;;;;5010917;28;20030;-80
2023/03/21 04:04:27;;;;;;;11.88;4.90;;;;;;;;;;5027376;28;20030;-80
2023/03/21 04:06:52;;;;;;;8.90;4.32;;;;;;;;;;5014286;28;20033;-79
2023/03/21 04:09:18;;;;;;;14.00;4.63;;;;;;;;;;5011411;28;20026;-79
2023/03/21 04:11:43;;;;;;;10.32;4.60;;;;;;;;;;5013556;28;20026;-79
2023/03/21 04:14:09;;;;;;;10.77;4.65;;;;;;;;;;5035316;28;20080;-79
2023/03/21 04:16:34;;;;;;;8.43;4.68;;;;;;;;;;5014741;28;20393;-79
2023/03/21 04:18:59;;;;;;;10.52;4.75;;;;;;;;;;5016568;28;20061;-80
2023/03/21 04:21:26;;;;;;;9.27;4.32;;;;;;;;;;5030978;28;20034;-80
2023/03/21 04:23:53;;;;;;;8.93;4.40;;;;;;;;;;5014825;28;20030;-79
2023/03/21 04:26:20;;;;;;;10.15;4.80;;;;;;;;;;5024414;28;20091;-79
2023/03/21 04:28:46;;;;;;;9.02;4.30;;;;;;;;;;5021445;28;20478;-80
2023/03/21 04:31:12;;;;;;;9.20;4.50;;;;;;;;;;5013414;28;20036;-80
2023/03/21 04:33:40;;;;;;;10.43;4.80;;;;;;;;;;5012119;28;20060;-79
2023/03/21 04:36:08;;;;;;;10.30;4.32;;;;;;;;;;5009425;28;20421;-79
2023/03/21 04:38:34;;;;;;;7.75;4.22;;;;;;;;;;5015256;28;20086;-79
2023/03/21 04:41:01;;;;;;;8.73;4.32;;;;;;;;;;5008931;28;20028;-79
2023/03/21 04:43:27;;;;;;;8.90;4.15;;;;;;;;;;5016110;28;20037;-79
2023/03/21 04:45:53;;;;;;;10.20;4.97;;;;;;;;;;5009446;28;20028;-79
2023/03/21 04:48:19;;;;;;;11.18;4.68;;;;;;;;;;5022162;28;20406;-79
2023/03/21 04:50:47;;;;;;;7.90;5.03;;;;;;;;;;5007005;28;20069;-79
2023/03/21 04:53:13;;;;;;;10.30;4.38;;;;;;;;;;5006854;28;20038;-79
2023/03/21 04:55:38;;;;;;;9.52;4.60;;;;;;;;;;5012468;28;20041;-80
2023/03/21 04:58:03;;;;;;;9.40;4.78;;;;;;;;;;5011008;28;20075;-79
2023/03/21 05:00:29;;;;;;;10.00;4.18;;;;;;;;;;5020382;28;20113;-79
2023/03/21 05:02:56;;;;;;;13.05;4.75;;;;;;;;;;5016748;28;20077;-79
2023/03/21 05:05:22;;;;;;;11.10;4.72;;;;;;;;;;5017209;28;20034;-79
2023/03/21 05:07:47;;;;;;;8.73;4.68;;;;;;;;;;5009047;28;20131;-79
2023/03/21 05:10:12;;;;;;;9.68;4.78;;;;;;;;;;5015598;28;20026;-79
2023/03/21 05:12:38;;;;;;;14.20;5.28;;;;;;;;;;5017590;28;20029;-79
2023/03/21 05:15:04;;;;;;;11.02;5.05;;;;;;;;;;5015580;28;20482;-79
2023/03/21 05:17:30;;;;;;;9.77;4.68;;;;;;;;;;5011292;28;20026;-79
2023/03/21 05:19:55;;;;;;;10.68;5.05;;;;;;;;;;5016113;28;20034;-79
2023/03/21 05:22:23;;;;;;;7.43;4.85;;;;;;;;;;5014122;28;20034;-79
2023/03/21 05:24:49;;;;;;;10.50;5.07;;;;;;;;;;5019379;28;20030;-78
2023/03/21 05:27:33;;;;;;;8.68;4.90;;;;;;;;;;5016383;28;20029;-80
2023/03/21 05:30:09;;;;;;;10.38;4.80;;;;;;;;;;5025175;28;20473;-79
2023/03/21 05:32:35;;;;;;;10.88;4.45;;;;;;;;;;5020615;28;20533;-79
2023/03/21 05:35:00;;;;;;;9.98;4.72;;;;;;;;;;5022973;28;20064;-79
2023/03/21 05:37:26;;;;;;;10.13;4.93;;;;;;;;;;5017944;28;20021;-79
2023/03/21 05:39:51;;;;;;;12.65;5.72;;;;;;;;;;5017428;28;20022;-79
2023/03/21 05:42:17;;;;;;;13.98;5.90;;;;;;;;;;5024222;28;20494;-79
2023/03/21 05:44:44;;;;;;;9.15;5.13;;;;;;;;;;5021732;28;20029;-80
2023/03/21 05:47:11;;;;;;;11.38;5.55;;;;;;;;;;5013270;28;20084;-79
2023/03/21 05:49:36;;;;;;;11.27;5.15;;;;;;;;;;5025097;28;20034;-79
2023/03/21 05:52:01;;;;;;;10.18;4.90;;;;;;;;;;5020248;28;20392;-79
2023/03/21 05:54:27;;;;;;;10.13;5.38;;;;;;;;;;5019600;28;20053;-79
2023/03/21 05:56:52;;;;;;;10.23;5.03;;;;;;;;;;5010842;28;20033;-79
2023/03/21 05:59:17;;;;;;;9.30;4.82;;;;;;;;;;5018196;28;20129;-79
2023/03/21 06:01:43;;;;;;;11.27;5.47;;;;;;;;;;5008798;28;20112;-79
2023/03/21 06:04:08;;;;;;;9.05;4.70;;;;;;;;;;5015266;28;20033;-79
2023/03/21 06:06:33;;;;;;;13.15;4.85;;;;;;;;;;5019210;28;20018;-79
2023/03/21 06:08:59;;;;;;;11.88;4.70;;;;;;;;;;5020556;28;20088;-79
2023/03/21 06:11:28;;;;;;;11.10;5.10;;;;;;;;;;5018838;28;20041;-79
2023/03/21 06:13:53;;;;;;;10.57;5.22;;;;;;;;;;5020413;28;20021;-79
2023/03/21 06:16:19;;;;;;;9.25;5.05;;;;;;;;;;5019171;28;20030;-79
2023/03/21 06:18:44;;;;;;;10.25;5.22;;;;;;;;;;5018849;28;20529;-79
2023/03/21 06:21:10;;;;;;;11.98;4.88;;;;;;;;;;5018496;28;20060;-79
2023/03/21 06:23:36;;;;;;;11.38;5.20;;;;;;;;;;5026725;28;20057;-79
2023/03/21 06:26:02;;;;;;;10.50;5.05;;;;;;;;;;5021599;28;20465;-80
2023/03/21 06:28:27;;;;;;;8.52;4.72;;;;;;;;;;5024184;28;20053;-79
2023/03/21 06:30:53;;;;;;;8.55;4.50;;;;;;;;;;5021323;28;20080;-79
2023/03/21 06:33:18;;;;;;;12.50;5.65;;;;;;;;;;5018994;28;20040;-79
2023/03/21 06:35:43;;;;;;;9.15;4.90;;;;;;;;;;5006113;28;20030;-80
2023/03/21 06:38:09;;;;;;;10.73;4.80;;;;;;;;;;5021689;28;20030;-80
2023/03/21 06:40:37;;;;;;;11.00;4.90;;;;;;;;;;5025879;28;20018;-80
2023/03/21 06:43:02;;;;;;;10.70;4.88;;;;;;;;;;5015763;28;20021;-79
2023/03/21 06:45:28;;;;;;;11.93;5.40;;;;;;;;;;5021214;28;20109;-79
2023/03/21 06:47:53;;;;;;;10.00;4.57;;;;;;;;;;5021311;28;20073;-79
2023/03/21 06:50:19;;;;;;;9.95;4.55;;;;;;;;;;5015277;28;20521;-79
2023/03/21 06:52:44;;;;;;;8.57;4.70;;;;;;;;;;5022687;28;20036;-79
2023/03/21 06:55:10;;;;;;;11.32;4.75;;;;;;;;;;5020413;28;20037;-79
2023/03/21 06:57:35;;;;;;;10.02;4.53;;;;;;;;;;5020105;28;20030;-79
2023/03/21 07:00:01;;;;;;;8.00;4.13;;;;;;;;;;5018261;28;20030;-79
2023/03/21 07:02:27;;;;;;;9.35;4.40;;;;;;;;;;5018970;28;20453;-79
2023/03/21 07:04:53;;;;;;;8.77;4.15;;;;;;;;;;5021613;28;20021;-80
2023/03/21 07:07:18;;;;;;;9.30;4.03;;;;;;;;;;5024621;28;20040;-79
2023/03/21 07:09:44;;;;;;;10.10;4.50;;;;;;;;;;5019090;28;20026;-79
2023/03/21 07:12:09;;;;;;;8.95;4.13;;;;;;;;;;5020098;28;20033;-80
2023/03/21 07:14:35;;;;;;;8.35;4.32;;;;;;;;;;5017452;28;20058;-79
2023/03/21 07:17:00;;;;;;;9.80;3.92;;;;;;;;;;5004657;28;20097;-79
2023/03/21 07:19:26;;;;;;;10.40;4.30;;;;;;;;;;5020104;28;20034;-79
2023/03/21 07:21:52;;;;;;;11.20;4.15;;;;;;;;;;5035723;28;20040;-78
2023/03/21 07:24:17;;;;;;;7.15;3.50;;;;;;;;;;5021512;28;20113;-78
2023/03/21 07:26:42;;;;;;;7.22;3.70;;;;;;;;;;5033871;28;20033;-79
2023/03/21 07:29:08;;;;;;;10.30;4.30;;;;;;;;;;5021769;28;20401;-79
2023/03/21 07:31:34;;;;;;;11.43;4.60;;;;;;;;;;5019491;28;20053;-78
2023/03/21 07:34:00;;;;;;;11.80;4.00;;;;;;;;;;5016385;28;20026;-79
2023/03/21 07:36:25;;;;;;;7.18;4.00;;;;;;;;;;5022342;28;20056;-79
2023/03/21 07:38:50;;;;;;;9.90;4.35;;;;;;;;;;5022043;28;20022;-80
2023/03/21 07:41:16;;;;;;;12.25;4.43;;;;;;;;;;5029658;28;20034;-79
2023/03/21 07:43:41;;;;;;;8.98;4.63;;;;;;;;;;5031251;28;20036;-79
2023/03/21 07:46:06;;;;;;;9.80;4.40;;;;;;;;;;5025051;28;20039;-78
2023/03/21 07:48:32;;;;;;;12.70;4.80;;;;;;;;;;5020498;28;20030;-79
2023/03/21 07:50:58;;;;;;;12.82;4.13;;;;;;;;;;5032638;28;20022;-79
2023/03/21 07:53:23;;;;;;;9.32;4.07;;;;;;;;;;5030817;28;20026;-80
2023/03/21 07:55:55;;;;;;;11.68;4.63;;;;;;;;;;5031719;28;20030;-79
2023/03/21 07:58:21;;;;;;;7.50;4.63;;;;;;;;;;5024461;28;20045;-79
2023/03/21 08:00:47;;;;;;;10.55;4.68;;;;;;;;;;5027920;28;20026;-79
2023/03/21 08:03:13;;;;;;;8.18;4.28;;;;;;;;;;5038283;28;20036;-78
2023/03/21 08:05:39;;;;;;;9.65;4.03;;;;;;;;;;5024310;28;20532;-79
2023/03/21 08:08:05;;;;;;;9.77;4.10;;;;;;;;;;5019590;28;20112;-79
2023/03/21 08:10:31;;;;;;;7.78;4.18;;;;;;;;;;5026047;28;20049;-79
2023/03/21 08:12:56;;;;;;;9.40;4.00;;;;;;;;;;5028729;28;20030;-79
2023/03/21 08:15:22;;;;;;;8.82;4.35;;;;;;;;;;5028404;28;20021;-79
2023/03/21 08:17:47;;;;;;;9.93;4.10;;;;;;;;;;5022433;28;20137;-79
2023/03/21 08:20:16;;;;;;;9.60;4.47;;;;;;;;;;5039451;28;20096;-79
2023/03/21 08:22:42;;;;;;;9.10;4.50;;;;;;;;;;5027628;28;20029;-80
2023/03/21 08:25:12;;;;;;;8.23;4.10;;;;;;;;;;5032062;28;20088;-79
2023/03/21 08:27:37;;;;;;;8.77;3.90;;;;;;;;;;5030678;28;20120;-79
2023/03/21 08:30:03;;;;;;;9.77;4.72;;;;;;;;;;5016680;28;20480;-79
2023/03/21 08:32:29;;;;;;;9.27;4.80;;;;;;;;;;5033737;28;20389;-79
2023/03/21 08:34:59;;;;;;;11.43;5.00;;;;;;;;;;5026148;28;20075;-79
2023/03/21 08:37:25;;;;;;;9.80;4.28;;;;;;;;;;5024715;28;20064;-79
2023/03/21 08:39:51;;;;;;;9.05;4.43;;;;;;;;;;5018265;28;20025;-79
2023/03/21 08:42:17;;;;;;;9.75;4.75;;;;;;;;;;5023500;28;20041;-79
2023/03/21 08:44:42;;;;;;;7.70;4.35;;;;;;;;;;5026187;28;20041;-79
2023/03/21 08:47:07;;;;;;;9.48;4.63;;;;;;;;;;5024207;28;20021;-79
2023/03/21 08:49:36;;;;;;;10.70;4.57;;;;;;;;;;5026200;28;20392;-79
2023/03/21 08:52:01;;;;;;;11.02;4.82;;;;;;;;;;5020157;28;20436;-79
2023/03/21 08:54:27;;;;;;;10.68;4.93;;;;;;;;;;5027476;28;20026;-79
2023/03/21 08:56:53;;;;;;;11.60;5.03;;;;;;;;;;5026058;28;20026;-79
2023/03/21 08:59:18;;;;;;;11.10;5.40;;;;;;;;;;5025527;28;20033;-79
2023/03/21 09:01:44;;;;;;;10.05;4.93;;;;;;;;;;5025024;28;20052;-79
2023/03/21 09:04:10;;;;;;;12.32;5.18;;;;;;;;;;5035529;28;20056;-78
2023/03/21 09:06:36;;;;;;;12.18;5.13;;;;;;;;;;5032360;28;20032;-79
2023/03/21 09:09:06;;;;;;;9.95;5.10;;;;;;;;;;5022902;28;20453;-79
2023/03/21 09:11:32;;;;;;;7.47;4.53;;;;;;;;;;5023758;28;20030;-79
2023/03/21 09:13:57;;;;;;;9.57;4.60;;;;;;;;;;5031516;28;20376;-79
2023/03/21 09:16:23;;;;;;;10.90;4.97;;;;;;;;;;5029265;28;20112;-80
2023/03/21 09:18:54;;;;;;;9.00;5.15;;;;;;;;;;5026464;28;20721;-79
2023/03/21 09:21:21;;;;;;;10.80;4.60;;;;;;;;;;5019827;28;20056;-79
2023/03/21 09:23:49;;;;;;;10.50;4.55;;;;;;;;;;5032055;28;20036;-80
2023/03/21 09:26:15;;;;;;;11.32;4.78;;;;;;;;;;5025441;28;20408;-78
2023/03/21 09:28:41;;;;;;;8.43;4.57;;;;;;;;;;5018978;28;20040;-79
2023/03/21 09:31:10;;;;;;;8.68;4.53;;;;;;;;;;5022517;28;20049;-79
2023/03/21 09:33:37;;;;;;;9.60;4.55;;;;;;;;;;5021661;28;20120;-80
2023/03/21 09:36:08;;;;;;;12.73;5.80;;;;;;;;;;5022640;28;20021;-79
2023/03/21 09:38:36;;;;;;;7.97;4.50;;;;;;;;;;5021195;28;20049;-79
2023/03/21 09:41:11;;;;;;;13.57;4.70;;;;;;;;;;5036037;28;20025;-79
2023/03/21 09:43:48;;;;;;;9.10;4.97;;;;;;;;;;5028951;28;20057;-79
2023/03/21 09:46:26;;;;;;;12.27;4.70;;;;;;;;;;5030229;28;20017;-79
2023/03/21 09:49:06;;;;;;;11.60;4.45;;;;;;;;;;5019953;28;20022;-79
2023/03/21 09:51:47;;;;;;;10.23;4.57;;;;;;;;;;5021919;28;20026;-79
2023/03/21 09:54:21;;;;;;;8.65;4.30;;;;;;;;;;5028460;28;20531;-79
2023/03/21 09:56:50;;;;;;;8.88;4.00;;;;;;;;;;5025357;28;20453;-79
2023/03/21 09:59:26;;;;;;;10.18;4.57;;;;;;;;;;5019287;28;20033;-79
2023/03/21 10:01:51;;;;;;;9.23;4.43;;;;;;;;;;5026213;28;20030;-79
2023/03/21 10:04:19;;;;;;;11.13;5.25;;;;;;;;;;5019218;28;20030;-79
2023/03/21 10:06:58;;;;;;;9.07;4.90;;;;;;;;;;5026075;28;20267;-79
2023/03/21 10:09:26;;;;;;;9.80;4.95;;;;;;;;;;5020636;28;20034;-79
2023/03/21 10:11:54;;;;;;;7.75;4.38;;;;;;;;;;5027707;28;20026;-79
2023/03/21 10:14:56;;;;;;;10.48;4.65;;;;;;;;;;5034853;28;20021;-79
2023/03/21 10:17:39;;;;;;;8.80;4.22;;;;;;;;;;5020599;28;20045;-79
2023/03/21 10:20:15;;;;;;;;;;;;;;;;;;5025000;28;20040;-79
2023/03/21 10:22:42;;;;;;;10.45;4.30;;;;;;;;;;5021288;28;19943;-80
2023/03/21 10:25:13;;;;;;;6.45;3.55;;;;;;;;;;5022512;28;20062;-79
2023/03/21 10:27:38;;;;;;;8.43;4.05;;;;;;;;;;5017996;28;20021;-79
2023/03/21 10:30:09;;;;;;;8.93;4.10;;;;;;;;;;5018027;28;20033;-79
2023/03/21 10:32:34;;;;;;;7.90;4.10;;;;;;;;;;5022591;28;20030;-79
2023/03/21 10:35:02;;;;;;;7.93;4.30;;;;;;;;;;5021183;28;20026;-80
2023/03/21 10:37:28;;;;;;;7.95;4.22;;;;;;;;;;5019150;28;20026;-79
2023/03/21 10:39:54;;;;;;;8.88;4.30;;;;;;;;;;5023940;28;20088;-80
2023/03/21 10:42:30;;;;;;;9.98;4.15;;;;;;;;;;5016139;28;20065;-79
2023/03/21 10:44:56;;;;;;;9.82;4.43;;;;;;;;;;5017555;28;20022;-79
2023/03/21 10:47:30;;;;;;;8.73;3.90;;;;;;;;;;5014258;28;20025;-80
2023/03/21 10:50:01;;;;;;;10.48;3.85;;;;;;;;;;5024837;28;20025;-79
2023/03/21 10:52:29;;;;;;;8.88;4.07;;;;;;;;;;5018823;28;20034;-79
2023/03/21 10:55:16;;;;;;;10.10;4.30;;;;;;;;;;5024969;28;20028;-79
2023/03/21 10:57:42;;;;;;;9.60;4.65;;;;;;;;;;5020779;28;20492;-79
2023/03/21 11:00:16;;;;;;;7.10;4.07;;;;;;;;;;5027837;28;20034;-79
2023/03/21 11:02:46;;;;;;;8.57;3.90;;;;;;;;;;5024564;28;20026;-79
2023/03/21 11:05:32;;;;;;;9.48;4.07;;;;;;;;;;5016549;28;20080;-79
2023/03/21 11:08:17;;;;;;;8.98;4.03;;;;;;;;;;5017499;28;20034;-79
2023/03/21 11:11:01;;;;;;;8.50;3.75;;;;;;;;;;5016454;28;20040;-79
2023/03/21 11:13:36;;;;;;;7.20;3.70;;;;;;;;;;5019689;28;20037;-79
2023/03/21 11:16:26;;;;;;;8.55;3.97;;;;;;;;;;5013746;28;20140;-79
2023/03/21 11:18:59;;;;;;;7.53;3.63;;;;;;;;;;5018210;28;20029;-79
2023/03/21 11:21:26;;;;;;;7.50;3.83;;;;;;;;;;5018395;28;20095;-79
2023/03/21 11:23:54;;;;;;;7.93;3.83;;;;;;;;;;5017794;28;20037;-79
2023/03/21 11:26:26;;;;;;;6.45;3.42;;;;;;;;;;5017215;28;20029;-79
2023/03/21 11:28:52;;;;;;;9.75;4.00;;;;;;;;;;5016876;28;20030;-79
2023/03/21 11:31:18;;;;;;;9.50;4.05;;;;;;;;;;5021596;28;20025;-79
2023/03/21 11:33:51;;;;;;;8.35;3.75;;;;;;;;;;5015698;28;20125;-79
2023/03/21 11:36:19;;;;;;;8.57;4.78;;;;;;;;;;5040859;28;20496;-79
2023/03/21 11:38:51;;;;;;;9.65;4.35;;;;;;;;;;5026560;28;20030;-79
2023/03/21 11:41:46;;;;;;;8.95;4.43;;;;;;;;;;5019725;28;20112;-79
2023/03/21 11:44:34;;;;;;;7.85;3.90;;;;;;;;;;5017647;28;20513;-80
2023/03/21 11:47:00;;;;;;;10.32;4.30;;;;;;;;;;5020497;28;20573;-79
2023/03/21 11:49:26;;;;;;;8.90;4.00;;;;;;;;;;5020510;28;20025;-79
2023/03/21 11:52:30;;;;;;;10.18;4.20;;;;;;;;;;5015661;28;20121;-79
2023/03/21 11:55:31;;;;;;;10.25;3.88;;;;;;;;;;5031490;28;20033;-78
2023/03/21 11:58:32;;;;;;;7.97;3.78;;;;;;;;;;5016257;28;20038;-79
2023/03/21 12:01:11;;;;;;;7.30;3.72;;;;;;;;;;5021838;28;20104;-79
2023/03/21 12:03:45;;;;;;;6.55;3.58;;;;;;;;;;5019571;28;20034;-79
2023/03/21 12:06:28;;;;;;;12.32;4.55;;;;;;;;;;5021030;28;20036;-79
2023/03/21 12:09:06;;;;;;;;;;;;;;;;;;5031944;28;20470;-79
2023/03/21 12:11:43;;;;;;;9.43;4.03;;;;;;;;;;5029896;28;19909;-79
2023/03/21 12:14:22;;;;;;;8.05;4.25;;;;;;;;;;5028626;28;20029;-79
2023/03/21 12:16:57;;;;;;;9.32;3.83;;;;;;;;;;5017923;28;20160;-79
2023/03/21 12:19:55;;;;;;;8.60;4.00;;;;;;;;;;5022454;28;20060;-80
2023/03/21 12:22:26;;;;;;;10.10;4.10;;;;;;;;;;5010355;28;20030;-79
2023/03/21 12:24:58;;;;;;;6.90;3.47;;;;;;;;;;5029044;28;20048;-79
2023/03/21 12:27:59;;;;;;;7.70;3.60;;;;;;;;;;5027289;28;20052;-79
2023/03/21 12:30:45;;;;;;;8.93;3.85;;;;;;;;;;5015884;28;20037;-79
2023/03/21 12:33:15;;;;;;;8.73;3.90;;;;;;;;;;5019604;28;20077;-79
2023/03/21 12:35:52;;;;;;;5.38;3.50;;;;;;;;;;5032525;28;20097;-79
2023/03/21 12:38:35;;;;;;;8.52;4.53;;;;;;;;;;5023193;28;20088;-79
2023/03/21 12:41:10;;;;;;;;;;;;;;;;;;5024633;28;20029;-79
2023/03/21 12:43:49;;;;;;;8.25;3.55;;;;;;;;;;5026763;28;19913;-79
2023/03/21 12:46:24;;;;;;;7.75;3.30;;;;;;;;;;5012609;28;20543;-80
2023/03/21 12:49:01;;;;;;;7.30;4.28;;;;;;;;;;5020810;28;20108;-79
2023/03/21 12:51:33;;;;;;;7.43;4.00;;;;;;;;;;5018451;28;20026;-79
2023/03/21 12:54:24;;;;;;;9.95;3.97;;;;;;;;;;5016288;28;20018;-80
2023/03/21 12:57:10;;;;;;;8.05;4.30;;;;;;;;;;5044200;28;20057;-79
2023/03/21 12:59:46;;;;;;;6.75;4.20;;;;;;;;;;5018770;28;20030;-79
2023/03/21 13:02:30;;;;;;;8.50;3.85;;;;;;;;;;5025089;28;20025;-79
2023/03/21 13:05:16;;;;;;;7.78;4.20;;;;;;;;;;5025584;28;20026;-79
2023/03/21 13:07:45;;;;;;;7.22;4.28;;;;;;;;;;5036850;28;20097;-79
2023/03/21 13:10:19;;;;;;;7.18;4.18;;;;;;;;;;5035238;28;20363;-80
2023/03/21 13:13:00;;;;;;;8.27;3.90;;;;;;;;;;5032048;28;20489;-80
2023/03/21 13:15:30;;;;;;;8.40;4.28;;;;;;;;;;5015102;28;20061;-79
2023/03/21 13:18:30;;;;;;;8.55;4.20;;;;;;;;;;5026656;28;20029;-79
2023/03/21 13:20:57;;;;;;;7.10;4.75;;;;;;;;;;5023979;28;20057;-80
2023/03/21 13:25:58;;;;;;;9.10;4.70;;;;;;;;;;5045655;22;20027;-80
2023/03/21 13:28:29;;;;;;;8.80;4.68;;;;;;;;;;5019571;28;20029;-80
2023/03/21 13:31:15;;;;;;;7.13;4.60;;;;;;;;;;4997473;28;20019;-79
2023/03/21 13:33:44;;;;;;;5.80;4.20;;;;;;;;;;5038754;23;20066;-80
2023/03/21 13:36:17;;;;;;;6.35;3.90;;;;;;;;;;5021832;28;20022;-80
2023/03/21 13:38:49;;;;;;;6.65;4.25;;;;;;;;;;5024375;28;20034;-81
2023/03/21 13:41:19;;;;;;;7.33;4.10;;;;;;;;;;5007676;28;20014;-80
2023/03/21 13:44:23;;;;;;;7.22;4.15;;;;;;;;;;5055829;23;20042;-80
2023/03/21 13:47:24;;;;;;;7.22;3.95;;;;;;;;;;5028903;28;20038;-80
2023/03/21 13:50:17;;;;;;;7.22;4.07;;;;;;;;;;5012672;28;20038;-80
2023/03/21 13:53:03;;;;;;;;;;;;;;;;;;5014910;28;20034;-81
2023/03/21 13:55:35;;;;;;;9.43;4.00;;;;;;;;;;5031977;28;19905;-80
2023/03/21 13:58:37;;;;;;;7.28;3.97;;;;;;;;;;5027305;28;20052;-81
2023/03/21 14:01:15;;;;;;;10.07;4.45;;;;;;;;;;5073398;23;20034;-80
2023/03/21 14:03:43;;;;;;;6.75;3.83;;;;;;;;;;5015741;28;20037;-80
2023/03/21 14:06:09;;;;;;;7.10;4.45;;;;;;;;;;5019914;28;20042;-80
2023/03/21 14:08:38;;;;;;;7.45;4.13;;;;;;;;;;5036762;28;20021;-80
2023/03/21 14:11:07;;;;;;;8.10;4.50;;;;;;;;;;5030867;28;20057;-80
2023/03/21 14:13:33;;;;;;;6.90;3.97;;;;;;;;;;5000982;28;20040;-80
2023/03/21 14:16:08;;;;;;;6.05;4.05;;;;;;;;;;5026228;28;20394;-80
2023/03/21 14:18:42;;;;;;;7.93;4.00;;;;;;;;;;5027501;28;20035;-80
2023/03/21 14:21:33;;;;;;;7.07;4.03;;;;;;;;;;5032540;28;20425;-80
2023/03/21 14:24:02;;;;;;;5.53;3.92;;;;;;;;;;5030357;28;20039;-80
2023/03/21 14:26:31;;;;;;;8.68;4.47;;;;;;;;;;5009353;28;20054;-80
2023/03/21 14:28:56;;;;;;;7.65;4.45;;;;;;;;;;5010598;28;20025;-78
2023/03/21 14:31:22;;;;;;;7.93;3.97;;;;;;;;;;5002477;28;20027;-79
2023/03/21 14:33:54;;;;;;;7.35;4.55;;;;;;;;;;4991951;28;20481;-79
2023/03/21 14:36:24;;;;;;;6.32;4.15;;;;;;;;;;4991133;28;20042;-79
2023/03/21 14:39:03;;;;;;;8.10;4.45;;;;;;;;;;5010785;28;20022;-79
2023/03/21 14:41:30;;;;;;;8.18;4.50;;;;;;;;;;4997862;28;20085;-79
2023/03/21 14:44:27;;;;;;;7.63;4.30;;;;;;;;;;5012288;28;20030;-79
2023/03/21 14:47:04;;;;;;;5.88;4.18;;;;;;;;;;5012719;28;20050;-79
2023/03/21 14:49:32;;;;;;;10.73;4.40;;;;;;;;;;5015371;28;20018;-78
2023/03/21 14:52:01;;;;;;;6.00;3.80;;;;;;;;;;4982496;28;20042;-79
2023/03/21 14:54:27;;;;;;;6.35;4.05;;;;;;;;;;4994401;28;20034;-79
2023/03/21 14:57:03;;;;;;;6.55;4.07;;;;;;;;;;5005328;28;20022;-79
2023/03/21 14:59:33;;;;;;;8.65;4.10;;;;;;;;;;5007738;28;20030;-79
2023/03/21 15:02:02;;;;;;;6.18;3.67;;;;;;;;;;4983780;28;20038;-78
2023/03/21 15:04:29;;;;;;;8.60;3.88;;;;;;;;;;4987813;28;20037;-80
2023/03/21 15:07:04;;;;;;;8.15;4.15;;;;;;;;;;4987194;28;20115;-79